Time;durP1;ratioP1;P1;durP2;ratioP2;P2;SDS_P1;SDS_P2;PMS_P1;PMS_P2;Temp;Humidity;BMP_temperature;BMP_pressure;BME280_temperature;BME280_humidity;BME280_pressure;Samples;Min_cycle;Max_cycle;Signal;HPM_P1;HPM_P2
2022/05/12 03:54:06;;;;;;;2.17;1.98;;;;;;;;;;5106790;27;20586;-81
2022/05/12 03:56:35;;;;;;;2.20;2.00;;;;;;;;;;5095124;28;20216;-78
2022/05/12 03:59:03;;;;;;;2.13;1.90;;;;;;;;;;5092263;28;20291;-78
2022/05/12 04:01:31;;;;;;;2.10;1.90;;;;;;;;;;5089069;28;20201;-76
2022/05/12 04:03:58;;;;;;;2.08;1.88;;;;;;;;;;5090847;28;20231;-76
2022/05/12 04:06:26;;;;;;;3.05;1.92;;;;;;;;;;5092164;28;20311;-78
2022/05/12 04:08:53;;;;;;;2.17;1.98;;;;;;;;;;5090348;28;20238;-77
2022/05/12 04:11:22;;;;;;;2.15;1.95;;;;;;;;;;5094360;28;20222;-79
2022/05/12 04:13:49;;;;;;;2.90;1.92;;;;;;;;;;5089344;28;20227;-78
2022/05/12 04:16:18;;;;;;;2.30;1.90;;;;;;;;;;5089538;28;20308;-78
2022/05/12 04:18:46;;;;;;;4.15;2.17;;;;;;;;;;5091287;28;20280;-79
2022/05/12 04:21:13;;;;;;;4.03;2.28;;;;;;;;;;5090441;28;20291;-78
2022/05/12 04:23:40;;;;;;;3.50;2.17;;;;;;;;;;5089340;28;20267;-77
2022/05/12 04:26:08;;;;;;;3.72;2.15;;;;;;;;;;5089510;28;20256;-81
2022/05/12 04:28:37;;;;;;;2.58;2.05;;;;;;;;;;5088383;28;20204;-80
2022/05/12 04:31:04;;;;;;;4.55;2.15;;;;;;;;;;5096466;28;20251;-83
2022/05/12 04:36:16;;;;;;;2.05;1.88;;;;;;;;;;5104062;28;20214;-78
2022/05/12 04:38:44;;;;;;;3.42;2.15;;;;;;;;;;5093432;28;20219;-78
2022/05/12 04:41:11;;;;;;;2.65;2.08;;;;;;;;;;5085045;28;20203;-78
2022/05/12 04:43:42;;;;;;;4.70;2.47;;;;;;;;;;5090988;28;20224;-78
2022/05/12 04:46:09;;;;;;;3.20;2.20;;;;;;;;;;5089895;28;20224;-77
2022/05/12 04:48:36;;;;;;;2.40;2.20;;;;;;;;;;5083483;28;20211;-78
2022/05/12 04:51:04;;;;;;;2.30;2.20;;;;;;;;;;5080988;28;20232;-78
2022/05/12 04:53:32;;;;;;;4.72;2.30;;;;;;;;;;5078832;28;20208;-78
2022/05/12 04:56:06;;;;;;;2.13;1.92;;;;;;;;;;5082114;28;20249;-79
2022/05/12 04:58:44;;;;;;;5.65;2.10;;;;;;;;;;5089360;28;20203;-78
2022/05/12 05:01:29;;;;;;;4.18;2.20;;;;;;;;;;5091872;28;20208;-79
2022/05/12 05:04:14;;;;;;;2.33;2.00;;;;;;;;;;5083819;28;20239;-79
2022/05/12 05:06:43;;;;;;;3.75;2.03;;;;;;;;;;5082867;28;20224;-78
2022/05/12 05:12:42;;;;;;;4.60;2.05;;;;;;;;;;5047053;28;20200;-79
2022/05/12 05:15:45;;;;;;;2.35;2.10;;;;;;;;;;5061127;28;20275;-80
2022/05/12 05:18:14;;;;;;;4.25;1.90;;;;;;;;;;5068868;28;20211;-79
2022/05/12 05:20:43;;;;;;;3.05;2.03;;;;;;;;;;5075065;28;20201;-80
2022/05/12 05:23:28;;;;;;;5.88;2.20;;;;;;;;;;5073894;28;20315;-80
2022/05/12 05:31:54;;;;;;;4.22;2.38;;;;;;;;;;5070289;28;20200;-78
2022/05/12 05:37:33;;;;;;;3.50;2.00;;;;;;;;;;5067712;28;20228;-78
2022/05/12 05:40:14;;;;;;;2.65;1.95;;;;;;;;;;5063749;28;20212;-78
2022/05/12 05:45:33;;;;;;;3.40;1.80;;;;;;;;;;5064134;28;20220;-79
2022/05/12 05:48:10;;;;;;;3.70;2.03;;;;;;;;;;5064136;28;20259;-78
2022/05/12 05:53:27;;;;;;;2.95;1.90;;;;;;;;;;5067761;28;20286;-77
2022/05/12 05:55:58;;;;;;;2.17;1.85;;;;;;;;;;5064966;28;20249;-78
2022/05/12 05:58:26;;;;;;;1.80;1.70;;;;;;;;;;5077584;28;20211;-78
2022/05/12 06:01:04;;;;;;;3.78;2.13;;;;;;;;;;5083668;28;20185;-77
2022/05/12 06:03:32;;;;;;;3.40;1.80;;;;;;;;;;5068136;28;20220;-77
2022/05/12 06:05:59;;;;;;;1.90;1.70;;;;;;;;;;5069447;28;20228;-77
2022/05/12 06:08:27;;;;;;;2.80;1.80;;;;;;;;;;5063721;28;20209;-76
2022/05/12 06:10:55;;;;;;;3.65;1.75;;;;;;;;;;5072474;28;20204;-78
2022/05/12 06:13:22;;;;;;;4.50;1.70;;;;;;;;;;5067727;28;20225;-78
2022/05/12 06:15:50;;;;;;;5.55;2.10;;;;;;;;;;5064346;28;20221;-78
2022/05/12 06:18:47;;;;;;;7.80;2.40;;;;;;;;;;5069876;28;20289;-78
2022/05/12 06:21:16;;;;;;;3.85;1.70;;;;;;;;;;5066542;28;20204;-78
2022/05/12 06:23:43;;;;;;;2.97;1.80;;;;;;;;;;5070282;28;20212;-78
2022/05/12 06:26:22;;;;;;;3.15;1.70;;;;;;;;;;5081359;28;20306;-78
2022/05/12 06:28:50;;;;;;;3.00;2.00;;;;;;;;;;5071752;28;20235;-80
2022/05/12 06:31:24;;;;;;;3.17;1.60;;;;;;;;;;5072487;28;20208;-78
2022/05/12 06:33:51;;;;;;;4.57;1.80;;;;;;;;;;5066502;28;20233;-78
2022/05/12 06:36:20;;;;;;;7.30;2.00;;;;;;;;;;5069692;28;20226;-81
2022/05/12 06:38:48;;;;;;;3.92;2.10;;;;;;;;;;5076846;28;20273;-79
2022/05/12 06:41:17;;;;;;;4.72;1.95;;;;;;;;;;5076170;28;20209;-78
2022/05/12 06:43:45;;;;;;;4.07;2.08;;;;;;;;;;5066782;28;20221;-77
2022/05/12 06:46:15;;;;;;;2.42;1.70;;;;;;;;;;5156818;22;20336;-79
2022/05/12 06:48:43;;;;;;;1.73;1.55;;;;;;;;;;5043407;28;20206;-78
2022/05/12 06:51:11;;;;;;;3.30;1.90;;;;;;;;;;5047916;28;20202;-79
2022/05/12 06:53:40;;;;;;;3.28;1.85;;;;;;;;;;5044095;28;20197;-80
2022/05/12 06:56:08;;;;;;;2.67;1.90;;;;;;;;;;5039041;28;20248;-79
2022/05/12 06:58:35;;;;;;;3.05;1.80;;;;;;;;;;5034836;28;20197;-80
2022/05/12 07:01:02;;;;;;;3.90;1.70;;;;;;;;;;5024015;28;20256;-79
2022/05/12 07:03:32;;;;;;;2.35;1.95;;;;;;;;;;5025724;28;20222;-78
2022/05/12 07:06:00;;;;;;;3.63;1.77;;;;;;;;;;5028863;28;20226;-79
2022/05/12 07:08:27;;;;;;;3.90;1.70;;;;;;;;;;5022849;28;20210;-80
2022/05/12 07:10:59;;;;;;;5.88;2.33;;;;;;;;;;5027641;28;20285;-78
2022/05/12 07:13:26;;;;;;;4.05;1.95;;;;;;;;;;5022500;28;20201;-78
2022/05/12 07:15:54;;;;;;;2.28;1.80;;;;;;;;;;5029772;28;20232;-79
2022/05/12 07:18:23;;;;;;;3.42;1.70;;;;;;;;;;5027810;28;20198;-78
2022/05/12 07:26:41;;;;;;;3.40;2.08;;;;;;;;;;5028470;28;20341;-77
2022/05/12 07:29:09;;;;;;;3.35;1.85;;;;;;;;;;5024204;28;20293;-78
2022/05/12 07:31:36;;;;;;;4.18;1.88;;;;;;;;;;5024732;28;20275;-78
2022/05/12 07:34:04;;;;;;;2.53;2.05;;;;;;;;;;5027646;28;20206;-78
2022/05/12 07:36:33;;;;;;;2.47;1.90;;;;;;;;;;5027655;28;20287;-78
2022/05/12 07:39:01;;;;;;;2.80;2.00;;;;;;;;;;5016916;28;20207;-80
2022/05/12 07:41:30;;;;;;;3.92;2.20;;;;;;;;;;5025846;28;20293;-79
2022/05/12 07:43:58;;;;;;;4.07;2.10;;;;;;;;;;5039242;28;20230;-84
2022/05/12 07:49:07;;;;;;;1.92;1.75;;;;;;;;;;5053713;28;20245;-90
2022/05/12 07:51:42;;;;;;;3.15;1.80;;;;;;;;;;5052284;28;20205;-90
2022/05/12 07:54:13;;;;;;;4.00;2.05;;;;;;;;;;5046146;28;20210;-94
2022/05/12 07:56:49;;;;;;;2.15;1.77;;;;;;;;;;5030001;28;20229;-89
2022/05/12 07:59:21;;;;;;;1.92;1.80;;;;;;;;;;5033505;28;20209;-92
2022/05/12 08:01:58;;;;;;;3.72;1.83;;;;;;;;;;5024788;28;20225;-91
2022/05/12 08:04:26;;;;;;;2.22;1.60;;;;;;;;;;5020147;28;20228;-90
2022/05/12 08:06:54;;;;;;;2.10;1.90;;;;;;;;;;5026019;28;20217;-91
2022/05/12 08:09:28;;;;;;;6.15;2.15;;;;;;;;;;5014533;28;20199;-91
2022/05/12 08:12:11;;;;;;;3.95;1.90;;;;;;;;;;5026897;28;20293;-91
2022/05/12 08:14:40;;;;;;;3.30;2.15;;;;;;;;;;5013336;28;20665;-92
2022/05/12 08:19:55;;;;;;;4.13;2.15;;;;;;;;;;5010786;28;20216;-90
2022/05/12 08:22:27;;;;;;;3.72;1.90;;;;;;;;;;5017765;28;20298;-91
2022/05/12 08:25:08;;;;;;;2.78;2.10;;;;;;;;;;5019396;28;20744;-91
2022/05/12 08:27:41;;;;;;;2.55;2.20;;;;;;;;;;5013403;28;20241;-91
2022/05/12 08:30:37;;;;;;;5.35;2.13;;;;;;;;;;5020171;28;20202;-83
2022/05/12 08:35:50;;;;;;;4.53;2.10;;;;;;;;;;5008460;28;20276;-84
2022/05/12 08:38:19;;;;;;;3.28;2.40;;;;;;;;;;5020365;28;20213;-85
2022/05/12 08:43:55;;;;;;;2.97;2.30;;;;;;;;;;4983006;28;20314;-89
2022/05/12 08:53:06;;;;;;;3.00;2.20;;;;;;;;;;5011506;28;20241;-90
2022/05/12 08:58:46;;;;;;;3.47;2.15;;;;;;;;;;4977872;28;20191;-92
2022/05/12 09:34:37;;;;;;;5.65;2.80;;;;;;;;;;2029303;22;20564;-82
2022/05/12 09:37:19;;;;;;;3.88;2.65;;;;;;;;;;5018578;28;20230;-83
2022/05/12 09:39:48;;;;;;;3.53;2.28;;;;;;;;;;5019201;28;20222;-84
2022/05/12 09:42:26;;;;;;;2.95;2.40;;;;;;;;;;5011311;28;20211;-84
2022/05/12 09:44:55;;;;;;;4.63;2.53;;;;;;;;;;5017337;28;20214;-84
2022/05/12 09:47:24;;;;;;;3.38;2.60;;;;;;;;;;5017081;28;20223;-83
2022/05/12 09:50:15;;;;;;;3.42;2.67;;;;;;;;;;5015821;28;20257;-87
2022/05/12 09:56:00;;;;;;;6.00;2.60;;;;;;;;;;4934274;29;20217;-85
2022/05/12 09:58:31;;;;;;;4.85;2.65;;;;;;;;;;4937662;29;20260;-86
2022/05/12 10:01:31;;;;;;;3.17;2.88;;;;;;;;;;4937102;29;20225;-89
2022/05/12 10:20:04;;;;;;;3.50;3.20;;;;;;;;;;5046863;28;20210;-81
2022/05/12 10:22:33;;;;;;;4.45;3.05;;;;;;;;;;5061332;28;20205;-84
2022/05/12 10:25:08;;;;;;;4.28;3.10;;;;;;;;;;5059619;28;20213;-84
2022/05/12 10:27:40;;;;;;;3.72;3.10;;;;;;;;;;5027991;28;20225;-85
2022/05/12 10:30:16;;;;;;;3.25;2.95;;;;;;;;;;5035231;28;20473;-85
2022/05/12 10:32:51;;;;;;;3.53;3.10;;;;;;;;;;5038515;28;20206;-82
2022/05/12 10:35:22;;;;;;;3.30;3.00;;;;;;;;;;5025272;28;20201;-81
2022/05/12 10:37:54;;;;;;;4.68;3.08;;;;;;;;;;5032933;28;20190;-81
2022/05/12 10:40:26;;;;;;;3.03;2.83;;;;;;;;;;5034048;28;20198;-82
2022/05/12 10:42:57;;;;;;;4.75;2.60;;;;;;;;;;5035958;28;20262;-82
2022/05/12 10:45:27;;;;;;;3.30;2.60;;;;;;;;;;5034647;28;20304;-82
2022/05/12 10:48:07;;;;;;;3.80;2.63;;;;;;;;;;5032629;28;20632;-82
2022/05/12 10:50:42;;;;;;;3.28;2.97;;;;;;;;;;5033915;28;20205;-83
2022/05/12 10:53:16;;;;;;;4.82;2.78;;;;;;;;;;5035956;28;20201;-84
2022/05/12 10:55:50;;;;;;;3.20;2.88;;;;;;;;;;5036338;28;20255;-85
2022/05/12 10:58:26;;;;;;;4.18;2.53;;;;;;;;;;5033473;28;20274;-84
2022/05/12 11:01:11;;;;;;;3.75;2.85;;;;;;;;;;5027606;28;20225;-83
2022/05/12 11:03:40;;;;;;;3.42;2.75;;;;;;;;;;5028032;28;20273;-82
2022/05/12 11:06:30;;;;;;;3.60;3.30;;;;;;;;;;5037406;28;20289;-83
2022/05/12 11:09:03;;;;;;;3.40;2.85;;;;;;;;;;5032910;28;20222;-82
2022/05/12 11:11:34;;;;;;;2.42;2.20;;;;;;;;;;5036098;28;20222;-86
2022/05/12 11:14:09;;;;;;;3.60;2.50;;;;;;;;;;5029786;28;20205;-82
2022/05/12 11:16:41;;;;;;;2.50;2.28;;;;;;;;;;5024564;28;20594;-83
2022/05/12 11:19:13;;;;;;;3.80;2.95;;;;;;;;;;5030636;28;20209;-83
2022/05/12 11:21:42;;;;;;;4.35;2.60;;;;;;;;;;5038720;28;20197;-84
2022/05/12 11:24:14;;;;;;;3.30;2.90;;;;;;;;;;5033610;28;20253;-83
2022/05/12 11:27:20;;;;;;;3.45;2.90;;;;;;;;;;5030834;28;20225;-82
2022/05/12 11:32:51;;;;;;;3.53;3.22;;;;;;;;;;5035829;28;20292;-84
2022/05/12 11:35:21;;;;;;;4.35;3.17;;;;;;;;;;5035511;28;20225;-82
2022/05/12 11:38:22;;;;;;;3.35;3.00;;;;;;;;;;5034798;28;20206;-86
2022/05/12 12:32:18;;;;;;;5.57;2.72;;;;;;;;;;5055355;28;20241;-88
2022/05/12 12:35:01;;;;;;;3.10;2.50;;;;;;;;;;5058691;28;20220;-83
2022/05/12 12:37:47;;;;;;;3.10;2.60;;;;;;;;;;5061641;28;20239;-82
2022/05/12 12:40:50;;;;;;;3.30;2.70;;;;;;;;;;5060386;28;20236;-85
2022/05/12 12:43:33;;;;;;;4.57;2.45;;;;;;;;;;5059812;28;20219;-81
2022/05/12 12:46:14;;;;;;;4.72;2.80;;;;;;;;;;5059282;28;20233;-82
2022/05/12 12:48:52;;;;;;;6.00;2.60;;;;;;;;;;5059176;28;20201;-82
2022/05/12 12:51:40;;;;;;;3.22;2.40;;;;;;;;;;5059104;28;20220;-81
2022/05/12 12:57:43;;;;;;;3.10;2.90;;;;;;;;;;5056682;28;20228;-91
2022/05/12 13:00:14;;;;;;;3.85;2.70;;;;;;;;;;5054555;28;20205;-84
2022/05/12 13:02:42;;;;;;;3.17;2.72;;;;;;;;;;5051092;28;20686;-83
2022/05/12 13:05:11;;;;;;;3.10;2.70;;;;;;;;;;5055992;28;20217;-81
2022/05/12 13:07:39;;;;;;;5.78;2.58;;;;;;;;;;5058219;28;20670;-77
2022/05/12 13:10:08;;;;;;;3.05;2.47;;;;;;;;;;5054490;28;20217;-74
2022/05/12 13:12:37;;;;;;;2.63;2.42;;;;;;;;;;5052313;28;20202;-75
2022/05/12 13:15:14;;;;;;;3.45;2.50;;;;;;;;;;5053507;28;20235;-73
2022/05/12 13:17:46;;;;;;;7.13;3.00;;;;;;;;;;5052953;28;20193;-73
2022/05/12 13:20:15;;;;;;;4.20;2.88;;;;;;;;;;5052585;28;20216;-73
2022/05/12 13:22:47;;;;;;;3.58;2.60;;;;;;;;;;5052140;28;20236;-72
2022/05/12 13:25:17;;;;;;;3.72;2.80;;;;;;;;;;5051488;28;20671;-72
2022/05/12 13:27:46;;;;;;;3.78;2.85;;;;;;;;;;5053167;28;20248;-73
2022/05/12 13:30:16;;;;;;;3.55;2.60;;;;;;;;;;5052859;28;20217;-73
2022/05/12 13:32:46;;;;;;;2.95;2.70;;;;;;;;;;5053231;28;20233;-72
2022/05/12 13:35:17;;;;;;;5.22;2.72;;;;;;;;;;5052359;28;20329;-72
2022/05/12 13:37:52;;;;;;;3.53;2.58;;;;;;;;;;5053350;28;20216;-72
2022/05/12 13:40:53;;;;;;;3.58;3.15;;;;;;;;;;5053066;28;20311;-72
2022/05/12 13:43:23;;;;;;;3.55;2.35;;;;;;;;;;4949416;28;20243;-74
2022/05/12 13:46:01;;;;;;;4.32;2.50;;;;;;;;;;4971405;22;20229;-73
2022/05/12 13:48:29;;;;;;;2.97;2.67;;;;;;;;;;5031901;28;20221;-74
2022/05/12 13:50:58;;;;;;;2.78;2.58;;;;;;;;;;5033091;28;20216;-75
2022/05/12 13:53:26;;;;;;;4.03;2.70;;;;;;;;;;5032937;28;20228;-75
2022/05/12 13:56:11;;;;;;;5.05;2.83;;;;;;;;;;5032019;28;20209;-74
2022/05/12 13:58:47;;;;;;;2.85;2.65;;;;;;;;;;5026677;28;20673;-74
2022/05/12 14:01:14;;;;;;;3.03;2.70;;;;;;;;;;5032925;28;20209;-74
2022/05/12 14:03:42;;;;;;;3.58;2.67;;;;;;;;;;5031816;28;20297;-74
2022/05/12 14:06:13;;;;;;;4.30;2.60;;;;;;;;;;5032188;28;20240;-74
2022/05/12 14:08:41;;;;;;;4.82;2.85;;;;;;;;;;5032385;28;20210;-74
2022/05/12 14:11:11;;;;;;;3.03;2.70;;;;;;;;;;5032571;28;20202;-74
2022/05/12 14:19:16;;;;;;;3.42;3.10;;;;;;;;;;5032052;28;20579;-75
2022/05/12 14:21:45;;;;;;;3.70;3.05;;;;;;;;;;5029515;28;20198;-74
2022/05/12 14:24:13;;;;;;;4.68;3.10;;;;;;;;;;5032244;28;20263;-75
2022/05/12 14:26:43;;;;;;;4.05;2.92;;;;;;;;;;5031849;28;20230;-75
2022/05/12 14:29:11;;;;;;;3.28;2.60;;;;;;;;;;5031728;28;20198;-74
2022/05/12 14:31:39;;;;;;;3.95;2.95;;;;;;;;;;5031951;28;20594;-74
2022/05/12 14:34:07;;;;;;;5.07;3.35;;;;;;;;;;5030898;28;20205;-75
2022/05/12 14:36:35;;;;;;;3.88;2.92;;;;;;;;;;5030589;28;20746;-75
2022/05/12 14:39:02;;;;;;;3.00;2.70;;;;;;;;;;5026411;28;20272;-76
2022/05/12 14:41:31;;;;;;;3.20;2.75;;;;;;;;;;5026303;28;20202;-75
2022/05/12 14:43:58;;;;;;;3.92;2.83;;;;;;;;;;5030864;28;20206;-75
2022/05/12 14:46:26;;;;;;;3.00;2.78;;;;;;;;;;5029599;28;20229;-74
2022/05/12 14:48:55;;;;;;;4.35;3.08;;;;;;;;;;5024785;28;20206;-77
2022/05/12 14:51:23;;;;;;;3.00;2.70;;;;;;;;;;5034233;28;20270;-75
2022/05/12 14:53:52;;;;;;;3.35;2.53;;;;;;;;;;5028073;28;20209;-73
2022/05/12 14:56:19;;;;;;;3.35;2.85;;;;;;;;;;5022476;28;20245;-75
2022/05/12 14:58:46;;;;;;;3.50;2.92;;;;;;;;;;5020916;28;20194;-75
2022/05/12 15:01:14;;;;;;;3.85;3.35;;;;;;;;;;5024897;28;20198;-75
2022/05/12 15:03:42;;;;;;;2.97;2.78;;;;;;;;;;5019611;28;20248;-75
2022/05/12 15:06:11;;;;;;;4.00;2.90;;;;;;;;;;5022243;28;20248;-75
2022/05/12 15:08:38;;;;;;;3.13;2.85;;;;;;;;;;5021805;28;20229;-75
2022/05/12 15:11:07;;;;;;;4.32;3.60;;;;;;;;;;5017957;28;20202;-75
2022/05/12 15:13:37;;;;;;;4.35;3.25;;;;;;;;;;5023471;28;20193;-78
2022/05/12 15:16:04;;;;;;;6.03;3.13;;;;;;;;;;5023495;28;20219;-73
2022/05/12 15:18:32;;;;;;;4.10;3.00;;;;;;;;;;5019618;28;20206;-73
2022/05/12 15:20:59;;;;;;;5.30;3.15;;;;;;;;;;5013731;28;20589;-76
2022/05/12 15:23:28;;;;;;;4.35;3.20;;;;;;;;;;5020698;28;20206;-70
2022/05/12 15:25:56;;;;;;;4.13;3.30;;;;;;;;;;5019280;28;20218;-77
2022/05/12 15:28:25;;;;;;;3.58;3.17;;;;;;;;;;5024205;28;20205;-72
2022/05/12 15:30:52;;;;;;;3.78;3.40;;;;;;;;;;5023727;28;20233;-74
2022/05/12 15:33:19;;;;;;;3.10;2.80;;;;;;;;;;5024926;28;20206;-73
2022/05/12 15:35:47;;;;;;;5.28;3.40;;;;;;;;;;5019305;28;20244;-81
2022/05/12 15:38:16;;;;;;;5.38;3.38;;;;;;;;;;5016578;28;20262;-73
2022/05/12 15:40:44;;;;;;;6.55;3.03;;;;;;;;;;5019830;28;20539;-76
2022/05/12 15:43:12;;;;;;;4.00;3.30;;;;;;;;;;5020222;28;20210;-73
2022/05/12 15:45:41;;;;;;;4.90;3.45;;;;;;;;;;5018379;28;20217;-73
2022/05/12 15:48:09;;;;;;;5.00;3.33;;;;;;;;;;5020258;28;20226;-73
2022/05/12 15:50:36;;;;;;;4.32;3.35;;;;;;;;;;5019575;28;20267;-76
2022/05/12 15:53:03;;;;;;;4.35;3.25;;;;;;;;;;5022914;28;20331;-76
2022/05/12 15:55:31;;;;;;;4.63;4.03;;;;;;;;;;5019684;28;20237;-74
2022/05/12 15:57:59;;;;;;;4.20;3.90;;;;;;;;;;5016076;28;20294;-72
2022/05/12 16:00:26;;;;;;;5.35;3.55;;;;;;;;;;5022659;28;20204;-74
2022/05/12 16:02:53;;;;;;;6.00;4.00;;;;;;;;;;5019034;28;20251;-74
2022/05/12 16:05:21;;;;;;;4.72;4.05;;;;;;;;;;5024366;28;20317;-74
2022/05/12 16:07:48;;;;;;;5.18;3.55;;;;;;;;;;5020795;28;20308;-72
2022/05/12 16:10:15;;;;;;;5.05;3.70;;;;;;;;;;5023897;28;20202;-74
2022/05/12 16:12:48;;;;;;;4.32;3.70;;;;;;;;;;5025939;28;20240;-74
2022/05/12 16:15:20;;;;;;;4.45;3.85;;;;;;;;;;5034806;28;20205;-74
2022/05/12 16:17:49;;;;;;;9.20;4.80;;;;;;;;;;5026667;28;20225;-74
2022/05/12 16:20:16;;;;;;;11.18;6.00;;;;;;;;;;5028190;28;20244;-74
2022/05/12 16:22:43;;;;;;;27.58;9.07;;;;;;;;;;5027537;28;20233;-75
2022/05/12 16:25:11;;;;;;;121.07;16.67;;;;;;;;;;5037049;28;20212;-78
2022/05/12 16:27:41;;;;;;;21.50;10.15;;;;;;;;;;5032022;28;20225;-77
2022/05/12 16:30:09;;;;;;;23.73;14.30;;;;;;;;;;5031002;28;20284;-79
2022/05/12 16:32:39;;;;;;;22.20;15.13;;;;;;;;;;5034687;28;20321;-77
2022/05/12 16:35:07;;;;;;;22.73;16.20;;;;;;;;;;5029784;28;20248;-76
2022/05/12 16:37:34;;;;;;;22.70;17.77;;;;;;;;;;5029499;28;20222;-75
2022/05/12 16:40:01;;;;;;;30.40;19.58;;;;;;;;;;5029970;28;20205;-75
2022/05/12 16:42:29;;;;;;;22.33;16.98;;;;;;;;;;5030361;28;20241;-76
2022/05/12 16:44:56;;;;;;;24.38;18.80;;;;;;;;;;5027409;28;20241;-77
2022/05/12 16:47:24;;;;;;;21.83;19.52;;;;;;;;;;5028619;28;20299;-77
2022/05/12 16:49:54;;;;;;;27.20;22.38;;;;;;;;;;5024219;28;20202;-75
2022/05/12 16:52:22;;;;;;;30.00;24.42;;;;;;;;;;5034593;28;20202;-75
2022/05/12 16:54:52;;;;;;;65.40;28.88;;;;;;;;;;5034824;28;20213;-84
2022/05/12 16:57:20;;;;;;;41.25;28.27;;;;;;;;;;5027212;28;20218;-85
2022/05/12 16:59:50;;;;;;;42.97;29.48;;;;;;;;;;5027390;28;20206;-79
2022/05/12 17:02:18;;;;;;;37.03;28.80;;;;;;;;;;5029037;28;20210;-78
2022/05/12 17:04:45;;;;;;;49.95;31.88;;;;;;;;;;5027944;28;20201;-78
2022/05/12 17:07:15;;;;;;;56.72;33.33;;;;;;;;;;5031292;28;20225;-79
2022/05/12 17:09:43;;;;;;;62.13;33.30;;;;;;;;;;5021938;28;20266;-79
2022/05/12 17:12:10;;;;;;;41.67;30.25;;;;;;;;;;5029025;28;20202;-81
2022/05/12 17:14:40;;;;;;;93.82;34.88;;;;;;;;;;5026160;28;20204;-82
2022/05/12 17:17:07;;;;;;;53.97;33.50;;;;;;;;;;5027542;28;20218;-81
2022/05/12 17:19:34;;;;;;;47.95;31.58;;;;;;;;;;5030328;28;20201;-85
2022/05/12 17:22:02;;;;;;;58.72;35.28;;;;;;;;;;5028037;28;20206;-80
2022/05/12 17:24:30;;;;;;;56.85;35.90;;;;;;;;;;5030868;28;20201;-77
2022/05/12 17:26:58;;;;;;;64.68;35.85;;;;;;;;;;5026309;28;20326;-79
2022/05/12 17:29:32;;;;;;;66.07;39.25;;;;;;;;;;5023758;28;20209;-80
2022/05/12 17:32:00;;;;;;;57.72;35.92;;;;;;;;;;5032175;28;20193;-78
2022/05/12 17:34:27;;;;;;;78.32;39.58;;;;;;;;;;5023231;28;20282;-77
2022/05/12 17:36:54;;;;;;;60.72;36.17;;;;;;;;;;5024968;28;20222;-78
2022/05/12 17:39:21;;;;;;;65.18;35.72;;;;;;;;;;5022984;28;20226;-80
2022/05/12 17:41:50;;;;;;;73.70;40.40;;;;;;;;;;5029052;28;20218;-78
2022/05/12 17:44:18;;;;;;;75.90;37.20;;;;;;;;;;5032496;28;20217;-78
2022/05/12 17:46:50;;;;;;;74.80;36.72;;;;;;;;;;5034393;28;20218;-79
2022/05/12 17:49:18;;;;;;;71.82;38.00;;;;;;;;;;5025092;28;20203;-76
2022/05/12 17:51:45;;;;;;;52.05;34.97;;;;;;;;;;5024642;28;20207;-76
2022/05/12 17:54:13;;;;;;;47.47;33.30;;;;;;;;;;5021003;28;20203;-76
2022/05/12 17:56:40;;;;;;;60.65;34.42;;;;;;;;;;5024927;28;20225;-77
2022/05/12 17:59:09;;;;;;;58.65;34.90;;;;;;;;;;5030980;28;20197;-77
2022/05/12 18:01:36;;;;;;;58.78;32.75;;;;;;;;;;5026433;28;20248;-78
2022/05/12 18:04:06;;;;;;;45.58;31.73;;;;;;;;;;5029217;28;20259;-77
2022/05/12 18:06:34;;;;;;;43.63;31.38;;;;;;;;;;5024530;28;20233;-76
2022/05/12 18:09:01;;;;;;;39.90;30.98;;;;;;;;;;5026474;28;20210;-75
2022/05/12 18:11:29;;;;;;;53.45;33.40;;;;;;;;;;5029220;28;20206;-75
2022/05/12 18:13:56;;;;;;;56.35;34.13;;;;;;;;;;5037160;28;20301;-75
2022/05/12 18:16:25;;;;;;;55.55;35.30;;;;;;;;;;5036755;28;20254;-75
2022/05/12 18:18:52;;;;;;;59.58;35.42;;;;;;;;;;5030814;28;20261;-75
2022/05/12 18:21:19;;;;;;;47.33;31.50;;;;;;;;;;5036003;28;20206;-75
2022/05/12 18:23:46;;;;;;;55.85;33.35;;;;;;;;;;5030246;28;20283;-75
2022/05/12 18:26:13;;;;;;;52.30;32.88;;;;;;;;;;5031599;28;20218;-76
2022/05/12 18:28:41;;;;;;;54.53;33.67;;;;;;;;;;5031534;28;20229;-75
2022/05/12 18:31:09;;;;;;;52.45;33.47;;;;;;;;;;5031924;28;20206;-75
2022/05/12 18:33:38;;;;;;;47.38;31.63;;;;;;;;;;5025548;28;20224;-75
2022/05/12 18:36:05;;;;;;;54.88;33.58;;;;;;;;;;5027175;28;20224;-75
2022/05/12 18:38:34;;;;;;;50.72;32.90;;;;;;;;;;5032167;28;20217;-76
2022/05/12 18:41:02;;;;;;;53.17;35.92;;;;;;;;;;5029006;28;20198;-75
2022/05/12 18:43:29;;;;;;;51.05;33.28;;;;;;;;;;5033752;28;20194;-75
2022/05/12 18:45:57;;;;;;;43.45;31.40;;;;;;;;;;5032579;28;20232;-75
2022/05/12 18:48:25;;;;;;;45.55;30.67;;;;;;;;;;5030886;28;20206;-76
2022/05/12 18:50:53;;;;;;;44.13;29.77;;;;;;;;;;5029128;28;20288;-75
2022/05/12 18:53:21;;;;;;;47.15;31.40;;;;;;;;;;5031420;28;20206;-75
2022/05/12 18:55:49;;;;;;;46.78;32.65;;;;;;;;;;5031326;28;20201;-75
2022/05/12 18:58:17;;;;;;;43.20;30.60;;;;;;;;;;5029040;28;20236;-75
2022/05/12 19:00:45;;;;;;;42.90;29.33;;;;;;;;;;5030672;28;20271;-75
2022/05/12 19:03:12;;;;;;;47.40;32.63;;;;;;;;;;5028742;28;20225;-75
2022/05/12 19:05:40;;;;;;;34.92;30.38;;;;;;;;;;5031502;28;20198;-76
2022/05/12 19:08:09;;;;;;;42.05;29.67;;;;;;;;;;5031054;28;20253;-76
2022/05/12 19:10:36;;;;;;;38.10;29.75;;;;;;;;;;5031201;28;20198;-76
2022/05/12 19:13:04;;;;;;;38.35;28.48;;;;;;;;;;5031084;28;20632;-75
2022/05/12 19:15:32;;;;;;;42.33;29.88;;;;;;;;;;5030900;28;20237;-75
2022/05/12 19:18:01;;;;;;;44.55;35.47;;;;;;;;;;5031998;28;20305;-76
2022/05/12 19:20:30;;;;;;;42.53;33.50;;;;;;;;;;5031417;28;20296;-75
2022/05/12 19:22:57;;;;;;;53.83;46.95;;;;;;;;;;5029019;28;20289;-75
2022/05/12 19:25:26;;;;;;;51.67;42.72;;;;;;;;;;5030055;28;20236;-75
2022/05/12 19:27:53;;;;;;;57.67;37.97;;;;;;;;;;5029074;28;20300;-75
2022/05/12 19:30:22;;;;;;;41.38;29.95;;;;;;;;;;5030987;28;20225;-76
2022/05/12 19:32:50;;;;;;;43.90;31.35;;;;;;;;;;5031212;28;20206;-75
2022/05/12 19:35:17;;;;;;;37.05;27.65;;;;;;;;;;5030094;28;20209;-75
2022/05/12 19:37:45;;;;;;;42.15;30.15;;;;;;;;;;5031477;28;20225;-75
2022/05/12 19:40:15;;;;;;;49.30;33.53;;;;;;;;;;5031715;28;20289;-75
2022/05/12 19:42:44;;;;;;;36.88;27.95;;;;;;;;;;5030338;28;20281;-77
2022/05/12 19:45:12;;;;;;;62.88;38.00;;;;;;;;;;5035918;28;20206;-75
2022/05/12 19:47:40;;;;;;;39.13;30.48;;;;;;;;;;5057967;22;20229;-75
2022/05/12 19:50:08;;;;;;;38.50;28.17;;;;;;;;;;5051701;28;20205;-75
2022/05/12 19:52:35;;;;;;;38.60;30.27;;;;;;;;;;5052435;28;20201;-75
2022/05/12 19:55:03;;;;;;;38.17;31.33;;;;;;;;;;5055745;28;20201;-75
2022/05/12 19:57:30;;;;;;;33.88;26.15;;;;;;;;;;5071550;28;20228;-75
2022/05/12 19:59:59;;;;;;;31.30;26.60;;;;;;;;;;5064513;28;20246;-75
2022/05/12 20:02:27;;;;;;;39.25;31.92;;;;;;;;;;5070939;28;20211;-75
2022/05/12 20:04:54;;;;;;;38.28;30.95;;;;;;;;;;5064485;28;20246;-75
2022/05/12 20:07:21;;;;;;;31.23;27.05;;;;;;;;;;5071261;28;20311;-75
2022/05/12 20:09:48;;;;;;;36.25;28.10;;;;;;;;;;5058057;28;20247;-75
2022/05/12 20:12:15;;;;;;;39.30;29.08;;;;;;;;;;5053550;28;20245;-75
2022/05/12 20:14:42;;;;;;;38.67;29.23;;;;;;;;;;5055670;28;20229;-75
2022/05/12 20:17:11;;;;;;;40.25;31.85;;;;;;;;;;5070662;28;20220;-75
2022/05/12 20:19:38;;;;;;;36.75;28.38;;;;;;;;;;5063401;28;20197;-75
2022/05/12 20:22:08;;;;;;;49.17;38.22;;;;;;;;;;5070804;28;20284;-75
2022/05/12 20:24:35;;;;;;;35.45;28.35;;;;;;;;;;5055830;28;20251;-75
2022/05/12 20:27:02;;;;;;;30.83;25.67;;;;;;;;;;5069537;28;20228;-75
2022/05/12 20:29:30;;;;;;;47.33;41.10;;;;;;;;;;5057674;28;20259;-75
2022/05/12 20:31:57;;;;;;;29.70;25.23;;;;;;;;;;5052074;28;20212;-75
2022/05/12 20:34:25;;;;;;;30.00;26.20;;;;;;;;;;5055164;28;20196;-74
2022/05/12 20:36:53;;;;;;;29.98;26.50;;;;;;;;;;5069703;28;20217;-75
2022/05/12 20:39:20;;;;;;;32.97;27.15;;;;;;;;;;5055204;28;20295;-75
2022/05/12 20:41:48;;;;;;;33.95;27.27;;;;;;;;;;5060551;28;20200;-75
2022/05/12 20:44:16;;;;;;;30.95;25.63;;;;;;;;;;5068798;28;20201;-75
2022/05/12 20:46:43;;;;;;;29.40;24.70;;;;;;;;;;5074215;28;20236;-74
2022/05/12 20:49:11;;;;;;;29.50;24.80;;;;;;;;;;5061555;28;20576;-75
2022/05/12 20:51:41;;;;;;;30.55;25.95;;;;;;;;;;5054982;28;20204;-75
2022/05/12 20:54:08;;;;;;;30.25;25.63;;;;;;;;;;5070666;28;20205;-75
2022/05/12 20:56:37;;;;;;;33.80;25.83;;;;;;;;;;5062091;28;20201;-75
2022/05/12 20:59:05;;;;;;;30.52;25.52;;;;;;;;;;5055126;28;20232;-74
2022/05/12 21:01:32;;;;;;;28.95;25.15;;;;;;;;;;5067099;28;20205;-75
2022/05/12 21:04:00;;;;;;;33.97;26.02;;;;;;;;;;5067684;28;20292;-75
2022/05/12 21:06:28;;;;;;;27.20;24.30;;;;;;;;;;5054693;28;20251;-74
2022/05/12 21:08:57;;;;;;;30.45;25.63;;;;;;;;;;5054408;28;20224;-75
2022/05/12 21:11:24;;;;;;;30.13;24.77;;;;;;;;;;5055099;28;20213;-75
2022/05/12 21:13:51;;;;;;;29.05;24.90;;;;;;;;;;5069638;28;20198;-75
2022/05/12 21:16:19;;;;;;;28.13;24.70;;;;;;;;;;5066689;28;20204;-74
2022/05/12 21:18:46;;;;;;;29.92;24.25;;;;;;;;;;5064761;28;20218;-75
2022/05/12 21:21:13;;;;;;;27.98;23.88;;;;;;;;;;5054422;28;20205;-74
2022/05/12 21:23:40;;;;;;;26.83;22.92;;;;;;;;;;5056926;28;20288;-74
2022/05/12 21:26:09;;;;;;;27.73;24.73;;;;;;;;;;5060597;28;20204;-74
2022/05/12 21:28:36;;;;;;;25.73;22.65;;;;;;;;;;5070875;28;20685;-75